Terminal Aerodrome Forecast
Issued by NWS Brownsville, TX

Home | Current Version | Previous Version | Text Only | Print | Product List | Glossary On
Versions: 1 2 3 4 5 6 7 8 9 10 11 12
000
FTUS44 KBRO 291720
TAFMFE
TAF
KMFE 291720Z 2918/3018 VRB05KT P6SM FEW040 FEW050
     FM301500 15010KT P6SM SCT040 PROB30 3015/3018 -SHRA SCT030
      BKN040=

USA.gov is the U.S. government's official web portal to all federal, state and local government web resources and services.